createdAt,value
2018-09-09T00:00:01.369Z,17.50
2018-09-09T00:02:29.305Z,13.40
2018-09-09T00:04:57.281Z,14.70
2018-09-09T00:07:25.150Z,13.00
2018-09-09T00:09:53.976Z,12.70
2018-09-09T00:12:21.918Z,12.50
2018-09-09T00:14:50.081Z,13.03
2018-09-09T00:17:18.037Z,13.97
2018-09-09T00:19:45.997Z,12.87
2018-09-09T00:22:13.884Z,14.10
2018-09-09T00:24:41.805Z,13.70
2018-09-09T00:27:09.702Z,15.27
2018-09-09T00:29:37.581Z,17.60
2018-09-09T00:32:05.524Z,17.20
2018-09-09T00:34:33.403Z,13.00
2018-09-09T00:37:01.427Z,16.30
2018-09-09T00:39:29.340Z,15.33
2018-09-09T00:41:57.274Z,14.83
2018-09-09T00:44:25.120Z,14.80
2018-09-09T00:46:53.052Z,15.40
2018-09-09T00:49:26.581Z,14.87
2018-09-09T00:52:00.150Z,16.47
2018-09-09T00:54:28.134Z,18.03
2018-09-09T00:56:56.013Z,13.87
2018-09-09T00:59:23.963Z,17.87
2018-09-09T01:01:51.939Z,13.10
2018-09-09T01:04:19.923Z,14.40
2018-09-09T01:06:47.773Z,14.50
2018-09-09T01:09:16.596Z,13.27
2018-09-09T01:11:44.557Z,13.63
2018-09-09T01:14:12.515Z,13.23
2018-09-09T01:16:40.406Z,17.70
2018-09-09T01:19:08.321Z,15.60
2018-09-09T01:21:36.269Z,11.43
2018-09-09T01:24:04.116Z,15.50
2018-09-09T01:26:32.067Z,15.23
2018-09-09T01:28:59.993Z,13.90
2018-09-09T01:31:27.888Z,15.87
2018-09-09T01:33:55.752Z,11.20
2018-09-09T01:36:23.685Z,16.43
2018-09-09T01:38:51.647Z,14.13
2018-09-09T01:41:19.497Z,13.13
2018-09-09T01:43:47.324Z,13.20
2018-09-09T01:46:16.264Z,12.87
2018-09-09T01:48:45.116Z,13.47
2018-09-09T01:51:12.998Z,12.13
2018-09-09T01:53:40.876Z,15.40
2018-09-09T01:56:08.720Z,11.30
2018-09-09T01:58:36.654Z,12.50
2018-09-09T02:01:04.541Z,11.17
2018-09-09T02:03:32.440Z,11.67
2018-09-09T02:06:00.345Z,14.47
2018-09-09T02:08:28.206Z,13.97
2018-09-09T02:10:59.234Z,12.33
2018-09-09T02:13:27.486Z,12.00
2018-09-09T02:15:55.413Z,12.37
2018-09-09T02:18:24.257Z,11.57
2018-09-09T02:20:52.153Z,12.23
2018-09-09T02:23:20.017Z,12.23
2018-09-09T02:25:48.039Z,12.13
2018-09-09T02:28:15.956Z,15.10
2018-09-09T02:30:43.836Z,14.70
2018-09-09T02:33:12.248Z,14.27
2018-09-09T02:35:40.192Z,12.40
2018-09-09T02:38:08.131Z,14.40
2018-09-09T02:40:36.033Z,14.60
2018-09-09T02:43:04.015Z,11.40
2018-09-09T02:45:31.904Z,13.97
2018-09-09T02:47:59.843Z,14.00
2018-09-09T02:50:27.801Z,12.17
2018-09-09T02:52:55.773Z,13.90
2018-09-09T02:55:24.683Z,11.90
2018-09-09T02:57:52.618Z,11.90
2018-09-09T03:00:20.566Z,15.63
2018-09-09T03:02:48.417Z,15.40
2018-09-09T03:05:16.350Z,17.70
2018-09-09T03:07:44.273Z,15.07
2018-09-09T03:10:12.148Z,16.07
2018-09-09T03:12:40.074Z,15.30
2018-09-09T03:15:07.987Z,12.00
2018-09-09T03:17:35.880Z,14.60
2018-09-09T03:20:03.809Z,13.50
2018-09-09T03:22:31.713Z,19.03
2018-09-09T03:24:59.701Z,16.53
2018-09-09T03:27:27.642Z,16.17
2018-09-09T03:29:55.613Z,13.70
2018-09-09T03:32:23.579Z,13.10
2018-09-09T03:34:51.509Z,15.10
2018-09-09T03:37:19.344Z,13.67
2018-09-09T03:39:47.314Z,13.43
2018-09-09T03:42:16.216Z,14.30
2018-09-09T03:44:44.121Z,14.63
2018-09-09T03:47:11.996Z,11.93
2018-09-09T03:49:39.845Z,12.90
2018-09-09T03:52:07.741Z,14.50
2018-09-09T03:54:35.726Z,12.50
2018-09-09T03:57:03.633Z,14.90
2018-09-09T03:59:31.562Z,15.07
2018-09-09T04:01:59.498Z,15.73
2018-09-09T04:04:27.352Z,16.20
2018-09-09T04:06:55.251Z,17.60
2018-09-09T04:09:23.245Z,15.37
2018-09-09T04:11:51.149Z,12.00
2018-09-09T04:14:19.010Z,13.10
2018-09-09T04:16:46.884Z,14.63
2018-09-09T04:19:14.770Z,12.67
2018-09-09T04:21:48.217Z,15.23
2018-09-09T04:24:16.093Z,11.97
2018-09-09T04:26:43.972Z,13.17
2018-09-09T04:29:11.870Z,13.50
2018-09-09T04:31:39.778Z,16.87
2018-09-09T04:34:07.808Z,12.70
2018-09-09T04:36:35.641Z,12.20
2018-09-09T04:39:04.494Z,12.80
2018-09-09T04:41:32.461Z,13.53
2018-09-09T04:44:01.273Z,11.83
2018-09-09T04:46:29.302Z,13.33
2018-09-09T04:48:57.194Z,11.97
2018-09-09T04:51:25.103Z,12.03
2018-09-09T04:53:53.051Z,10.70
2018-09-09T04:56:20.892Z,12.03
2018-09-09T04:58:48.969Z,12.90
2018-09-09T05:01:16.844Z,12.93
2018-09-09T05:03:44.704Z,11.00
2018-09-09T05:06:12.542Z,11.97
2018-09-09T05:08:40.467Z,13.27
2018-09-09T05:11:08.362Z,10.73
2018-09-09T05:13:36.246Z,12.20
2018-09-09T05:16:04.205Z,12.17
2018-09-09T05:18:32.086Z,16.20
2018-09-09T05:21:00.054Z,10.73
2018-09-09T05:23:28.062Z,13.70
2018-09-09T05:25:55.924Z,12.10
2018-09-09T05:28:23.837Z,14.30
2018-09-09T05:30:51.713Z,11.67
2018-09-09T05:33:19.611Z,12.53
2018-09-09T05:35:47.484Z,10.70
2018-09-09T05:38:15.416Z,9.93
2018-09-09T05:40:43.327Z,9.43
2018-09-09T05:43:11.180Z,9.50
2018-09-09T05:45:39.087Z,10.07
2018-09-09T05:48:06.942Z,12.10
2018-09-09T05:50:34.821Z,11.43
2018-09-09T05:53:03.710Z,9.17
2018-09-09T05:55:31.634Z,11.10
2018-09-09T05:57:59.630Z,12.00
2018-09-09T06:00:27.537Z,11.53
2018-09-09T06:02:55.438Z,10.47
2018-09-09T06:05:23.348Z,11.37
2018-09-09T06:07:51.306Z,10.63
2018-09-09T06:10:19.218Z,9.23
2018-09-09T06:12:47.082Z,11.50
2018-09-09T06:15:15.007Z,10.27
2018-09-09T06:17:42.942Z,9.67
2018-09-09T06:20:10.874Z,11.23
2018-09-09T06:22:38.774Z,10.77
2018-09-09T06:25:06.782Z,10.03
2018-09-09T06:27:34.632Z,11.13
2018-09-09T06:30:02.619Z,13.67
2018-09-09T06:32:30.468Z,12.03
2018-09-09T06:34:58.356Z,12.20
2018-09-09T06:37:26.310Z,8.13
2018-09-09T06:39:54.254Z,9.37
2018-09-09T06:42:22.231Z,8.50
2018-09-09T06:44:50.163Z,10.20
2018-09-09T06:47:18.054Z,10.63
2018-09-09T06:49:46.002Z,9.93
2018-09-09T06:52:13.812Z,8.30
2018-09-09T06:54:41.720Z,8.20
2018-09-09T06:57:09.574Z,9.63
2018-09-09T06:59:38.499Z,13.73
2018-09-09T07:02:07.330Z,8.43
2018-09-09T07:04:35.137Z,9.90
2018-09-09T07:07:03.035Z,7.90
2018-09-09T07:09:30.944Z,8.33
2018-09-09T07:11:58.968Z,11.53
2018-09-09T07:14:27.747Z,9.03
2018-09-09T07:16:55.666Z,9.40
2018-09-09T07:19:24.639Z,8.37
2018-09-09T07:21:53.615Z,11.83
2018-09-09T07:24:22.435Z,14.40
2018-09-09T07:26:50.354Z,9.03
2018-09-09T07:29:19.264Z,11.60
2018-09-09T07:31:48.150Z,8.63
2018-09-09T07:34:17.173Z,8.60
2018-09-09T07:36:44.965Z,12.60
2018-09-09T07:39:13.852Z,12.90
2018-09-09T07:41:41.697Z,12.13
2018-09-09T07:44:10.626Z,10.37
2018-09-09T07:46:38.530Z,10.57
2018-09-09T07:49:07.360Z,8.40
2018-09-09T07:51:35.274Z,9.00
2018-09-09T07:54:03.194Z,11.07
2018-09-09T07:56:31.078Z,10.77
2018-09-09T07:58:58.966Z,9.37
2018-09-09T08:01:26.865Z,10.07
2018-09-09T08:03:54.860Z,7.97
2018-09-09T08:06:22.823Z,10.30
2018-09-09T08:13:45.971Z,11.67
2018-09-09T08:16:13.832Z,13.00
2018-09-09T08:18:41.685Z,9.20
2018-09-09T08:21:09.638Z,6.67
2018-09-09T08:23:37.537Z,12.40
2018-09-09T08:26:05.452Z,7.73
2018-09-09T08:28:33.406Z,10.40
2018-09-09T08:31:02.233Z,7.97
2018-09-09T08:33:30.121Z,8.90
2018-09-09T08:35:58.994Z,7.70
2018-09-09T08:38:26.854Z,7.33
2018-09-09T08:40:54.757Z,6.40
2018-09-09T08:43:22.557Z,6.90
2018-09-09T08:45:50.487Z,9.00
2018-09-09T08:48:19.357Z,7.40
2018-09-09T08:50:47.212Z,9.93
2018-09-09T08:53:15.080Z,9.23
2018-09-09T08:55:42.979Z,6.70
2018-09-09T08:58:10.788Z,6.57
2018-09-09T09:00:39.764Z,6.67
2018-09-09T09:03:07.628Z,6.07
2018-09-09T09:05:35.563Z,6.40
2018-09-09T09:08:03.469Z,5.50
2018-09-09T09:10:31.352Z,5.90
2018-09-09T09:12:59.281Z,9.93
2018-09-09T09:15:28.137Z,5.30
2018-09-09T09:17:56.058Z,7.80
2018-09-09T09:20:24.953Z,7.90
2018-09-09T09:22:52.902Z,5.70
2018-09-09T09:25:20.841Z,10.00
2018-09-09T09:27:48.717Z,6.53
2018-09-09T09:30:16.525Z,5.63
2018-09-09T09:32:46.015Z,4.97
2018-09-09T09:35:13.962Z,6.33
2018-09-09T09:37:43.843Z,10.33
2018-09-09T09:40:11.746Z,8.33
2018-09-09T09:42:39.624Z,8.83
2018-09-09T09:45:07.554Z,7.40
2018-09-09T09:47:35.429Z,7.73
2018-09-09T09:50:03.317Z,5.20
2018-09-09T09:52:31.133Z,5.70
2018-09-09T09:54:59.133Z,5.37
2018-09-09T09:57:27.075Z,4.73
2018-09-09T09:59:55.005Z,5.30
2018-09-09T10:02:22.942Z,4.63
2018-09-09T10:04:50.780Z,6.40
2018-09-09T10:07:18.660Z,4.93
2018-09-09T10:09:46.570Z,4.17
2018-09-09T10:12:14.456Z,7.93
2018-09-09T10:14:42.370Z,4.53
2018-09-09T10:17:10.292Z,4.80
2018-09-09T10:19:39.175Z,4.40
2018-09-09T10:22:07.105Z,4.43
2018-09-09T10:24:35.031Z,4.77
2018-09-09T10:27:02.937Z,7.43
2018-09-09T10:29:30.843Z,4.43
2018-09-09T10:31:58.770Z,5.20
2018-09-09T10:34:26.642Z,4.40
2018-09-09T10:36:54.562Z,5.03
2018-09-09T10:39:22.569Z,4.97
2018-09-09T10:41:50.523Z,4.30
2018-09-09T10:44:18.438Z,6.40
2018-09-09T10:46:46.496Z,5.80
2018-09-09T10:49:14.389Z,5.83
2018-09-09T10:51:42.354Z,7.67
2018-09-09T10:54:10.228Z,6.07
2018-09-09T10:56:38.124Z,5.57
2018-09-09T10:59:06.022Z,5.70
2018-09-09T11:01:33.888Z,4.20
2018-09-09T11:04:01.704Z,7.10
2018-09-09T11:08:38.085Z,5.17
2018-09-09T11:11:06.047Z,6.70
2018-09-09T11:13:33.961Z,4.53
2018-09-09T11:16:01.855Z,7.13
2018-09-09T11:18:29.702Z,5.90
2018-09-09T11:20:57.585Z,5.93
2018-09-09T11:23:25.433Z,3.40
2018-09-09T11:25:53.340Z,3.73
2018-09-09T11:28:21.216Z,4.00
2018-09-09T11:30:49.226Z,3.70
2018-09-09T11:33:17.120Z,5.00
2018-09-09T11:35:45.065Z,3.50
2018-09-09T11:38:13.051Z,3.17
2018-09-09T11:40:41.004Z,5.40
2018-09-09T11:43:08.908Z,3.40
2018-09-09T11:45:36.758Z,4.00
2018-09-09T11:48:04.639Z,5.13
2018-09-09T11:50:33.457Z,7.27
2018-09-09T12:02:50.798Z,5.30
2018-09-09T12:05:18.637Z,3.75
2018-09-09T12:53:07.654Z,3.40
2018-09-09T13:00:29.644Z,4.47
2018-09-09T13:02:57.537Z,4.07
2018-09-09T13:05:25.424Z,2.73
2018-09-09T13:07:53.332Z,3.30
2018-09-09T13:10:21.347Z,5.30
2018-09-09T13:12:54.773Z,2.40
2018-09-09T13:15:22.882Z,4.77
2018-09-09T13:17:50.994Z,2.40
2018-09-09T13:20:18.842Z,5.57
2018-09-09T13:22:46.706Z,2.87
2018-09-09T13:25:14.578Z,4.10
2018-09-09T13:27:42.398Z,2.90
2018-09-09T13:30:10.334Z,3.17
2018-09-09T13:32:38.143Z,3.07
2018-09-09T13:35:05.965Z,3.07
2018-09-09T13:37:33.782Z,4.60
2018-09-09T13:40:01.612Z,2.97
2018-09-09T13:42:29.393Z,2.50
2018-09-09T13:44:57.294Z,2.53
2018-09-09T13:47:25.135Z,2.70
2018-09-09T13:49:52.949Z,2.60
2018-09-09T13:52:20.862Z,3.37
2018-09-09T13:54:48.641Z,3.53
2018-09-09T13:57:16.422Z,2.77
2018-09-09T13:59:44.288Z,3.93
2018-09-09T14:02:12.068Z,2.60
2018-09-09T14:04:39.898Z,2.87
2018-09-09T14:07:07.775Z,2.92
2018-09-09T14:09:35.757Z,3.00
2018-09-09T14:12:03.663Z,2.85
2018-09-09T14:14:31.718Z,3.47
2018-09-09T14:16:59.599Z,3.07
2018-09-09T14:19:27.433Z,3.10
2018-09-09T14:21:55.322Z,4.12
2018-09-09T14:24:23.177Z,2.65
2018-09-09T14:26:51.087Z,4.72
2018-09-09T14:29:18.918Z,3.50
2018-09-09T14:31:46.757Z,2.60
2018-09-09T14:34:14.628Z,3.62
2018-09-09T14:36:42.461Z,4.87
2018-09-09T14:46:32.077Z,2.60
2018-09-09T15:18:25.138Z,3.40
2018-09-09T15:20:53.028Z,4.40
2018-09-09T15:23:20.878Z,2.90
2018-09-09T15:30:42.921Z,2.62
2018-09-09T15:33:10.773Z,2.87
2018-09-09T15:35:38.625Z,2.72
2018-09-09T15:38:06.508Z,2.47
2018-09-09T15:40:34.313Z,3.92
2018-09-09T15:43:02.190Z,3.25
2018-09-09T15:45:30.079Z,3.17
2018-09-09T15:47:57.885Z,2.55
2018-09-09T15:50:25.762Z,2.50
2018-09-09T15:52:53.634Z,2.73
2018-09-09T15:55:21.445Z,5.33
2018-09-09T15:57:49.240Z,3.00
2018-09-09T16:00:17.156Z,2.02
2018-09-09T16:02:44.904Z,2.47
2018-09-09T16:05:12.725Z,2.50
2018-09-09T16:07:40.565Z,3.23
2018-09-09T16:10:08.390Z,3.20
2018-09-09T16:12:36.247Z,2.70
2018-09-09T16:15:04.252Z,2.67
2018-09-09T16:17:32.065Z,2.50
2018-09-09T16:19:59.909Z,2.47
2018-09-09T17:01:23.430Z,4.75
2018-09-09T17:03:51.308Z,3.73
2018-09-09T17:47:42.872Z,6.40
2018-09-09T17:50:10.729Z,7.40
2018-09-09T17:52:38.587Z,7.30
2018-09-09T17:55:06.447Z,7.33
2018-09-09T17:57:34.304Z,6.77
2018-09-09T18:00:02.112Z,15.47
2018-09-09T18:02:29.993Z,8.50
2018-09-09T18:04:57.923Z,8.47
2018-09-09T18:07:25.799Z,6.53
2018-09-09T18:09:53.678Z,6.93
2018-09-09T18:12:21.500Z,8.73
2018-09-09T18:14:49.289Z,7.27
2018-09-09T18:17:17.216Z,7.07
2018-09-09T18:19:45.057Z,6.47
2018-09-09T18:22:12.940Z,7.53
2018-09-09T18:24:40.991Z,9.80
2018-09-09T18:27:08.916Z,8.37
2018-09-09T18:29:36.828Z,6.40
2018-09-09T18:32:04.726Z,7.40
2018-09-09T18:34:32.732Z,11.10
2018-09-09T18:37:00.832Z,11.03
2018-09-09T18:39:28.758Z,7.73
2018-09-09T18:41:56.654Z,7.20
2018-09-09T18:44:24.580Z,10.10
2018-09-09T18:46:52.429Z,13.13
2018-09-09T18:49:20.332Z,10.07
2018-09-09T18:51:48.291Z,7.83
2018-09-09T18:54:16.219Z,9.43
2018-09-09T18:56:44.144Z,9.27
2018-09-09T18:59:12.074Z,7.43
2018-09-09T19:01:40.017Z,10.77
2018-09-09T19:04:07.967Z,9.57
2018-09-09T19:06:35.945Z,10.90
2018-09-09T19:09:04.150Z,9.27
2018-09-09T19:11:32.014Z,11.30
2018-09-09T19:13:59.987Z,11.33
2018-09-09T19:16:27.890Z,10.80
2018-09-09T19:18:55.786Z,10.17
2018-09-09T19:21:23.703Z,10.33
2018-09-09T19:26:38.287Z,9.30
2018-09-09T19:29:06.499Z,9.80
2018-09-09T19:31:34.556Z,14.67
2018-09-09T19:34:02.605Z,16.10
2018-09-09T19:36:30.525Z,9.27
2018-09-09T19:38:58.495Z,8.80
2018-09-09T19:41:26.628Z,11.77
2018-09-09T19:43:54.506Z,10.43
2018-09-09T19:46:22.395Z,9.90
2018-09-09T19:48:50.555Z,11.77
2018-09-09T19:51:18.420Z,10.80
2018-09-09T19:53:46.302Z,11.93
2018-09-09T19:56:14.169Z,12.50
2018-09-09T19:58:42.101Z,12.33
2018-09-09T20:01:10.134Z,13.73
2018-09-09T20:03:38.172Z,18.30
2018-09-09T20:06:06.350Z,16.57
2018-09-09T20:08:34.225Z,17.27
2018-09-09T20:11:02.488Z,11.90
2018-09-09T20:13:30.412Z,14.27
2018-09-09T20:15:58.357Z,15.73
2018-09-09T20:18:26.436Z,13.13
2018-09-09T20:20:54.446Z,11.60
2018-09-09T20:23:22.393Z,9.70
2018-09-09T20:25:50.409Z,11.13
2018-09-09T20:28:18.330Z,9.97
2018-09-09T20:30:46.273Z,13.13
2018-09-09T20:33:14.286Z,10.50
2018-09-09T20:35:42.277Z,13.23
2018-09-09T20:38:10.144Z,13.93
2018-09-09T20:40:37.954Z,12.37
2018-09-09T20:43:05.887Z,16.63
2018-09-09T20:45:33.805Z,13.10
2018-09-09T20:48:03.757Z,10.80
2018-09-09T20:50:31.632Z,12.60
2018-09-09T20:52:59.518Z,12.20
2018-09-09T20:55:27.350Z,10.00
2018-09-09T21:42:07.888Z,14.80
2018-09-09T21:44:35.770Z,13.40
2018-09-09T21:47:03.666Z,14.23
2018-09-09T21:49:31.554Z,15.70
2018-09-09T21:51:59.408Z,15.10
2018-09-09T21:54:27.266Z,13.10
2018-09-09T21:56:56.089Z,13.47
2018-09-09T21:59:24.026Z,14.63
2018-09-09T22:01:57.439Z,9.40
2018-09-09T22:04:25.361Z,12.40
2018-09-09T22:06:53.197Z,11.27
2018-09-09T22:09:22.069Z,11.73
2018-09-09T22:11:49.963Z,11.67
2018-09-09T22:14:17.843Z,11.47
2018-09-09T22:16:45.714Z,13.40
2018-09-09T22:19:13.536Z,14.20
2018-09-09T22:21:41.394Z,16.63
2018-09-09T22:24:10.351Z,13.43
2018-09-09T22:26:38.253Z,10.70
2018-09-09T22:29:06.094Z,12.43
2018-09-09T22:31:33.950Z,11.83
2018-09-09T22:34:05.301Z,11.13
2018-09-09T22:36:34.081Z,9.80
2018-09-09T22:39:02.892Z,11.27
2018-09-09T22:41:30.817Z,10.43
2018-09-09T22:43:58.667Z,11.20
2018-09-09T22:46:26.590Z,11.17
2018-09-09T22:48:54.429Z,16.50
2018-09-09T22:51:22.446Z,11.53
2018-09-09T22:53:50.369Z,15.00
2018-09-09T22:56:18.297Z,12.80
2018-09-09T22:58:46.153Z,13.63
2018-09-09T23:01:13.956Z,11.73
2018-09-09T23:03:41.865Z,12.60
2018-09-09T23:06:09.672Z,13.07
2018-09-09T23:08:37.562Z,11.77
2018-09-09T23:11:05.437Z,11.80
2018-09-09T23:13:33.430Z,14.43
2018-09-09T23:16:01.355Z,12.70
2018-09-09T23:18:29.210Z,11.53
2018-09-09T23:20:57.040Z,12.47
2018-09-09T23:23:24.876Z,10.80
2018-09-09T23:25:52.685Z,11.33
2018-09-09T23:28:20.577Z,12.60
2018-09-09T23:30:48.445Z,11.13
2018-09-09T23:33:16.310Z,13.53
2018-09-09T23:35:44.184Z,10.27
2018-09-09T23:38:12.074Z,15.47
2018-09-09T23:40:39.938Z,18.10
2018-09-09T23:43:07.813Z,14.10
2018-09-09T23:45:35.666Z,11.50
2018-09-09T23:57:52.049Z,12.30
